Time;durP1;ratioP1;P1;durP2;ratioP2;P2;SDS_P1;SDS_P2;PMS_P1;PMS_P2;Temp;Humidity;BMP_temperature;BMP_pressure;BME280_temperature;BME280_humidity;BME280_pressure;Samples;Min_cycle;Max_cycle;Signal;HPM_P1;HPM_P2
2023/12/27 00:00:29;;;;;;;17.35;4.88;;;;;;;;;;5119519;27;20039;-78
2023/12/27 00:02:55;;;;;;;19.83;5.28;;;;;;;;;;5155131;27;20047;-78
2023/12/27 00:05:21;;;;;;;13.20;5.03;;;;;;;;;;5154954;27;20055;-78
2023/12/27 00:07:47;;;;;;;27.27;5.72;;;;;;;;;;5140630;27;20047;-77
2023/12/27 00:10:13;;;;;;;26.08;5.38;;;;;;;;;;5175385;27;20038;-77
2023/12/27 00:12:39;;;;;;;17.55;5.15;;;;;;;;;;5144633;27;20086;-77
2023/12/27 00:15:06;;;;;;;18.15;5.05;;;;;;;;;;5136730;27;20038;-78
2023/12/27 00:17:32;;;;;;;17.15;5.20;;;;;;;;;;5154508;27;20042;-77
2023/12/27 00:19:58;;;;;;;20.13;5.50;;;;;;;;;;5154850;27;20078;-77
2023/12/27 00:22:24;;;;;;;18.17;5.10;;;;;;;;;;5136489;27;20449;-76
2023/12/27 00:24:50;;;;;;;11.52;4.47;;;;;;;;;;5155747;27;20425;-77
2023/12/27 00:27:16;;;;;;;15.40;4.93;;;;;;;;;;5120031;27;20047;-78
2023/12/27 00:29:42;;;;;;;16.05;5.35;;;;;;;;;;5159332;27;20042;-78
2023/12/27 00:32:09;;;;;;;19.77;5.55;;;;;;;;;;5142488;27;20095;-79
2023/12/27 00:34:38;;;;;;;16.13;5.05;;;;;;;;;;5161942;27;20050;-77
2023/12/27 00:37:05;;;;;;;19.02;5.53;;;;;;;;;;5163024;27;20057;-77
2023/12/27 00:39:31;;;;;;;18.13;5.40;;;;;;;;;;5141881;27;20074;-77
2023/12/27 00:41:57;;;;;;;17.98;5.60;;;;;;;;;;5160078;27;20525;-77
2023/12/27 00:44:23;;;;;;;16.65;5.45;;;;;;;;;;5123255;27;20129;-73
2023/12/27 00:46:50;;;;;;;17.73;4.88;;;;;;;;;;5140457;27;20375;-77
2023/12/27 00:49:16;;;;;;;15.45;5.13;;;;;;;;;;5158445;27;20042;-76
2023/12/27 00:51:44;;;;;;;19.37;5.07;;;;;;;;;;5158737;27;20046;-78
2023/12/27 00:54:10;;;;;;;15.90;4.30;;;;;;;;;;5159045;27;20046;-76
2023/12/27 00:56:36;;;;;;;16.30;5.18;;;;;;;;;;5158289;27;20076;-77
2023/12/27 00:59:02;;;;;;;15.32;4.63;;;;;;;;;;5158750;27;20047;-76
2023/12/27 01:01:31;;;;;;;16.08;4.45;;;;;;;;;;5139576;27;20071;-76
2023/12/27 01:03:57;;;;;;;17.08;5.35;;;;;;;;;;5158790;27;20054;-76
2023/12/27 01:06:23;;;;;;;19.63;5.78;;;;;;;;;;5158521;27;20050;-77
2023/12/27 01:08:49;;;;;;;14.65;4.72;;;;;;;;;;5139829;27;20114;-76
2023/12/27 01:11:15;;;;;;;22.02;5.63;;;;;;;;;;5158350;27;20045;-77
2023/12/27 01:13:42;;;;;;;19.33;5.55;;;;;;;;;;5139641;27;20050;-77
2023/12/27 01:16:08;;;;;;;20.60;5.75;;;;;;;;;;5158163;27;20138;-76
2023/12/27 01:18:34;;;;;;;20.13;5.72;;;;;;;;;;5158060;27;20421;-77
2023/12/27 01:21:00;;;;;;;14.90;5.90;;;;;;;;;;5140334;27;20038;-77
2023/12/27 01:23:27;;;;;;;17.65;5.55;;;;;;;;;;5125272;27;20081;-78
2023/12/27 01:25:53;;;;;;;19.90;6.70;;;;;;;;;;5176227;27;20053;-76
2023/12/27 01:28:19;;;;;;;20.17;6.38;;;;;;;;;;5150729;27;20051;-77
2023/12/27 01:30:45;;;;;;;25.40;7.40;;;;;;;;;;5158122;27;20034;-76
2023/12/27 01:33:11;;;;;;;18.92;6.28;;;;;;;;;;5158356;27;20054;-77
2023/12/27 01:35:37;;;;;;;22.27;6.82;;;;;;;;;;5157553;27;20466;-79
2023/12/27 01:38:03;;;;;;;22.50;8.15;;;;;;;;;;5158034;27;20046;-77
2023/12/27 01:40:30;;;;;;;26.70;8.02;;;;;;;;;;5156754;27;20379;-77
2023/12/27 01:42:56;;;;;;;20.42;8.27;;;;;;;;;;5157321;27;20046;-77
2023/12/27 01:45:22;;;;;;;21.02;7.88;;;;;;;;;;5157609;27;20043;-76
2023/12/27 01:47:49;;;;;;;20.33;7.78;;;;;;;;;;5157190;27;20065;-77
2023/12/27 01:50:16;;;;;;;22.20;7.40;;;;;;;;;;5139159;27;20053;-77
2023/12/27 01:52:42;;;;;;;22.30;7.55;;;;;;;;;;5138763;27;20402;-76
2023/12/27 01:55:09;;;;;;;23.73;7.10;;;;;;;;;;5122117;27;20057;-77
2023/12/27 01:57:39;;;;;;;23.60;6.78;;;;;;;;;;5157118;27;20039;-75
2023/12/27 02:00:09;;;;;;;26.52;7.93;;;;;;;;;;5157331;27;20039;-76
2023/12/27 02:02:37;;;;;;;22.80;6.88;;;;;;;;;;5156621;27;20146;-77
2023/12/27 02:05:04;;;;;;;20.35;6.82;;;;;;;;;;5139035;27;20038;-77
2023/12/27 02:07:30;;;;;;;28.48;8.32;;;;;;;;;;5139052;27;20477;-77
2023/12/27 02:09:57;;;;;;;28.92;9.00;;;;;;;;;;5157412;27;20039;-76
2023/12/27 02:12:24;;;;;;;36.42;9.20;;;;;;;;;;5138886;27;20390;-76
2023/12/27 02:14:51;;;;;;;28.55;8.02;;;;;;;;;;5138825;27;20050;-78
2023/12/27 02:17:17;;;;;;;22.85;7.88;;;;;;;;;;5157090;27;20494;-76
2023/12/27 02:19:43;;;;;;;22.17;7.03;;;;;;;;;;5139712;27;20039;-77
2023/12/27 02:22:12;;;;;;;21.35;5.72;;;;;;;;;;5157273;27;20087;-76
2023/12/27 02:24:38;;;;;;;18.15;5.53;;;;;;;;;;5139068;27;20046;-76
2023/12/27 02:27:05;;;;;;;16.02;6.00;;;;;;;;;;5157460;27;20484;-77
2023/12/27 02:29:31;;;;;;;15.48;5.65;;;;;;;;;;5157161;27;20046;-77
2023/12/27 02:31:57;;;;;;;19.83;5.93;;;;;;;;;;5138803;27;20047;-77
2023/12/27 02:34:23;;;;;;;20.92;6.32;;;;;;;;;;5157069;27;20046;-76
2023/12/27 02:36:49;;;;;;;17.60;5.55;;;;;;;;;;5156750;27;20123;-76
2023/12/27 02:39:15;;;;;;;23.03;6.77;;;;;;;;;;5138262;27;20047;-76
2023/12/27 02:41:41;;;;;;;17.63;5.07;;;;;;;;;;5137959;27;20813;-77
2023/12/27 02:44:07;;;;;;;12.57;4.00;;;;;;;;;;5138547;27;20482;-76
2023/12/27 02:46:34;;;;;;;20.55;5.88;;;;;;;;;;5156973;27;20050;-76
2023/12/27 02:49:00;;;;;;;18.48;4.63;;;;;;;;;;5156563;27;20047;-78
2023/12/27 02:51:26;;;;;;;17.73;4.88;;;;;;;;;;5156832;27;20078;-77
2023/12/27 02:53:52;;;;;;;16.58;4.88;;;;;;;;;;5156544;27;20039;-75
2023/12/27 02:56:18;;;;;;;12.30;4.68;;;;;;;;;;5138063;27;20125;-78
2023/12/27 02:58:44;;;;;;;21.40;5.20;;;;;;;;;;5156476;27;20043;-76
2023/12/27 03:01:10;;;;;;;18.55;5.00;;;;;;;;;;5156200;27;20512;-76
2023/12/27 03:03:36;;;;;;;12.77;4.53;;;;;;;;;;5156934;27;20055;-77
2023/12/27 03:06:03;;;;;;;11.45;4.55;;;;;;;;;;5156289;27;20038;-77
2023/12/27 03:08:29;;;;;;;14.15;4.68;;;;;;;;;;5121235;27;20051;-77
2023/12/27 03:10:55;;;;;;;17.30;4.70;;;;;;;;;;5156137;27;20122;-76
2023/12/27 03:13:22;;;;;;;12.55;4.25;;;;;;;;;;5137889;27;20050;-77
2023/12/27 03:15:48;;;;;;;11.82;4.45;;;;;;;;;;5156062;27;20042;-76
2023/12/27 03:18:14;;;;;;;19.02;5.20;;;;;;;;;;5156151;27;20125;-76
2023/12/27 03:20:40;;;;;;;13.02;5.05;;;;;;;;;;5138030;27;20042;-76
2023/12/27 03:23:06;;;;;;;14.98;4.95;;;;;;;;;;5137560;27;20042;-78
2023/12/27 03:25:32;;;;;;;12.52;4.80;;;;;;;;;;5137657;27;20049;-76
2023/12/27 03:27:58;;;;;;;14.75;4.97;;;;;;;;;;5137325;27;20051;-76
2023/12/27 03:30:24;;;;;;;21.33;5.47;;;;;;;;;;5137267;27;20043;-76
2023/12/27 03:32:50;;;;;;;11.88;4.70;;;;;;;;;;5155922;27;20506;-76
2023/12/27 03:35:17;;;;;;;17.70;4.95;;;;;;;;;;5155736;27;20082;-76
2023/12/27 03:37:45;;;;;;;14.25;4.75;;;;;;;;;;5155693;27;20121;-75
2023/12/27 03:40:11;;;;;;;17.45;4.80;;;;;;;;;;5137012;27;20212;-76
2023/12/27 03:42:38;;;;;;;15.63;5.28;;;;;;;;;;5120259;27;20035;-76
2023/12/27 03:45:04;;;;;;;15.60;5.38;;;;;;;;;;5137291;27;20091;-76
2023/12/27 03:47:30;;;;;;;16.20;5.23;;;;;;;;;;5155680;27;20046;-77
2023/12/27 03:49:56;;;;;;;14.75;5.57;;;;;;;;;;5120244;27;20443;-77
2023/12/27 03:52:23;;;;;;;16.90;5.53;;;;;;;;;;5156512;27;20070;-76
2023/12/27 03:54:49;;;;;;;17.90;5.78;;;;;;;;;;5137698;27;20046;-76
2023/12/27 03:57:15;;;;;;;17.83;6.13;;;;;;;;;;5155479;27;20046;-75
2023/12/27 03:59:41;;;;;;;18.52;6.20;;;;;;;;;;5136951;27;20050;-75
2023/12/27 04:02:08;;;;;;;18.80;7.25;;;;;;;;;;5136919;27;20061;-77
2023/12/27 04:04:34;;;;;;;17.75;7.22;;;;;;;;;;5138080;27;20050;-76
2023/12/27 04:07:00;;;;;;;19.55;8.40;;;;;;;;;;5156584;27;20050;-77
2023/12/27 04:09:26;;;;;;;15.00;6.50;;;;;;;;;;5156295;27;20084;-76
2023/12/27 04:11:52;;;;;;;21.05;7.43;;;;;;;;;;5137799;27;20150;-78
2023/12/27 04:14:18;;;;;;;23.30;7.75;;;;;;;;;;5137515;27;20049;-76
2023/12/27 04:16:45;;;;;;;19.73;8.20;;;;;;;;;;5137331;27;20043;-76
2023/12/27 04:19:11;;;;;;;24.02;7.65;;;;;;;;;;5155532;27;20049;-76
2023/12/27 04:21:37;;;;;;;25.55;7.78;;;;;;;;;;5137282;27;20047;-76
2023/12/27 04:24:03;;;;;;;24.70;8.75;;;;;;;;;;5136966;27;20050;-75
2023/12/27 04:26:29;;;;;;;27.25;7.97;;;;;;;;;;5137976;27;20378;-77
2023/12/27 04:28:55;;;;;;;23.02;7.90;;;;;;;;;;5136904;27;20049;-76
2023/12/27 04:31:21;;;;;;;22.65;7.82;;;;;;;;;;5154778;27;20512;-77
2023/12/27 04:33:47;;;;;;;24.23;8.13;;;;;;;;;;5156020;27;20043;-77
2023/12/27 04:36:13;;;;;;;20.40;8.70;;;;;;;;;;5136497;27;20050;-76
2023/12/27 04:38:39;;;;;;;17.95;7.65;;;;;;;;;;5156189;27;20453;-77
2023/12/27 04:41:09;;;;;;;22.80;8.10;;;;;;;;;;5155179;27;20043;-76
2023/12/27 04:43:36;;;;;;;25.08;7.95;;;;;;;;;;5155226;27;20042;-76
2023/12/27 04:46:06;;;;;;;17.92;7.97;;;;;;;;;;5136921;27;20070;-77
2023/12/27 04:48:33;;;;;;;25.25;8.35;;;;;;;;;;5155254;27;20125;-76
2023/12/27 04:50:59;;;;;;;17.80;9.17;;;;;;;;;;5103372;27;20039;-77
2023/12/27 04:53:25;;;;;;;21.00;8.20;;;;;;;;;;5155691;27;20046;-76
2023/12/27 04:55:51;;;;;;;19.00;9.05;;;;;;;;;;5137987;27;20494;-77
2023/12/27 04:58:17;;;;;;;18.83;8.35;;;;;;;;;;5120848;27;20051;-76
2023/12/27 05:00:43;;;;;;;26.08;8.65;;;;;;;;;;5137984;27;20130;-77
2023/12/27 05:03:09;;;;;;;26.05;9.05;;;;;;;;;;5138531;27;20047;-76
2023/12/27 05:05:35;;;;;;;23.52;8.95;;;;;;;;;;5139381;27;20056;-76
2023/12/27 05:08:01;;;;;;;17.20;7.85;;;;;;;;;;5159687;27;20042;-78
2023/12/27 05:10:27;;;;;;;19.23;7.63;;;;;;;;;;5142075;27;20109;-77
2023/12/27 05:12:54;;;;;;;23.50;8.32;;;;;;;;;;5142788;27;20058;-78
2023/12/27 05:15:20;;;;;;;20.27;7.85;;;;;;;;;;5162842;27;20130;-79
2023/12/27 05:17:46;;;;;;;29.23;8.70;;;;;;;;;;5162961;27;20069;-76
2023/12/27 05:20:13;;;;;;;19.50;7.60;;;;;;;;;;5159588;27;20497;-77
2023/12/27 05:22:44;;;;;;;25.75;8.35;;;;;;;;;;5141126;27;20046;-77
2023/12/27 05:25:10;;;;;;;19.92;7.93;;;;;;;;;;5141592;27;20450;-76
2023/12/27 05:27:36;;;;;;;21.67;7.23;;;;;;;;;;5141759;27;20049;-75
2023/12/27 05:30:03;;;;;;;18.65;8.13;;;;;;;;;;5141464;27;20291;-77
2023/12/27 05:32:29;;;;;;;18.60;7.72;;;;;;;;;;5141777;27;20104;-76
2023/12/27 05:34:56;;;;;;;21.33;7.43;;;;;;;;;;5124158;27;20045;-76
2023/12/27 05:37:22;;;;;;;21.60;7.72;;;;;;;;;;5158464;27;20498;-75
2023/12/27 05:39:48;;;;;;;22.02;7.35;;;;;;;;;;5124145;27;20085;-76
2023/12/27 05:42:14;;;;;;;18.67;7.20;;;;;;;;;;5158259;27;20054;-76
2023/12/27 05:44:40;;;;;;;18.10;7.43;;;;;;;;;;5158938;27;20055;-76
2023/12/27 05:47:06;;;;;;;19.10;7.67;;;;;;;;;;5122804;27;20039;-77
2023/12/27 05:49:33;;;;;;;19.25;7.40;;;;;;;;;;5139244;27;20078;-75
2023/12/27 05:51:59;;;;;;;23.08;8.23;;;;;;;;;;5122824;27;20050;-75
2023/12/27 05:54:26;;;;;;;22.40;8.43;;;;;;;;;;5139381;27;20092;-77
2023/12/27 05:56:53;;;;;;;21.65;8.95;;;;;;;;;;5106299;27;20114;-75
2023/12/27 05:59:19;;;;;;;21.55;8.45;;;;;;;;;;5139367;27;20132;-74
2023/12/27 06:01:46;;;;;;;23.55;8.75;;;;;;;;;;5157432;27;20474;-74
2023/12/27 06:04:14;;;;;;;21.33;9.35;;;;;;;;;;5158221;27;20053;-74
2023/12/27 06:06:40;;;;;;;20.23;8.18;;;;;;;;;;5122470;27;20042;-77
2023/12/27 06:09:06;;;;;;;20.17;8.15;;;;;;;;;;5139324;27;20129;-77
2023/12/27 06:11:32;;;;;;;24.75;8.45;;;;;;;;;;5139140;27;20047;-76
2023/12/27 06:13:58;;;;;;;19.85;7.88;;;;;;;;;;5139751;27;20058;-75
2023/12/27 06:16:25;;;;;;;16.35;7.57;;;;;;;;;;5138788;27;20045;-76
2023/12/27 06:18:54;;;;;;;20.10;7.57;;;;;;;;;;5157301;27;20500;-74
2023/12/27 06:21:20;;;;;;;16.73;6.78;;;;;;;;;;5157095;27;20050;-74
2023/12/27 06:23:46;;;;;;;22.47;8.03;;;;;;;;;;5139445;27;20047;-73
2023/12/27 06:26:13;;;;;;;20.55;7.32;;;;;;;;;;5156839;27;20078;-75
2023/12/27 06:28:39;;;;;;;25.98;7.82;;;;;;;;;;5138821;27;20510;-75
2023/12/27 06:31:05;;;;;;;19.80;7.28;;;;;;;;;;5157000;27;20045;-74
2023/12/27 06:33:31;;;;;;;19.85;7.32;;;;;;;;;;5138473;27;20039;-76
2023/12/27 06:35:57;;;;;;;22.50;8.18;;;;;;;;;;5138269;27;20039;-76
2023/12/27 06:38:24;;;;;;;22.95;7.43;;;;;;;;;;5138561;27;20051;-74
2023/12/27 06:40:50;;;;;;;23.90;7.65;;;;;;;;;;5139209;27;20043;-75
2023/12/27 06:43:16;;;;;;;21.08;7.40;;;;;;;;;;5157338;27;20087;-74
2023/12/27 06:45:42;;;;;;;21.65;7.20;;;;;;;;;;5138674;27;20497;-75
2023/12/27 06:48:08;;;;;;;19.08;7.03;;;;;;;;;;5156618;27;20068;-74
2023/12/27 06:50:34;;;;;;;16.70;7.72;;;;;;;;;;5156530;27;20049;-76
2023/12/27 06:53:00;;;;;;;17.40;7.18;;;;;;;;;;5156606;27;20047;-75
2023/12/27 06:55:26;;;;;;;17.30;6.93;;;;;;;;;;5138047;27;20050;-74
2023/12/27 06:57:53;;;;;;;18.25;6.60;;;;;;;;;;5138135;27;20046;-76
2023/12/27 07:00:19;;;;;;;20.25;6.95;;;;;;;;;;5138221;27;20039;-75
2023/12/27 07:02:45;;;;;;;15.07;6.57;;;;;;;;;;5137640;27;20046;-75
2023/12/27 07:05:12;;;;;;;21.90;6.88;;;;;;;;;;5138043;27;20050;-75
2023/12/27 07:07:38;;;;;;;18.33;6.72;;;;;;;;;;5138029;27;20364;-75
2023/12/27 07:10:04;;;;;;;18.50;6.90;;;;;;;;;;5157043;27;20137;-75
2023/12/27 07:12:31;;;;;;;20.20;6.50;;;;;;;;;;5156240;27;20076;-73
2023/12/27 07:14:58;;;;;;;20.05;7.32;;;;;;;;;;5138141;27;20150;-75
2023/12/27 07:17:24;;;;;;;19.75;6.72;;;;;;;;;;5137668;27;20050;-76
2023/12/27 07:19:50;;;;;;;18.00;6.28;;;;;;;;;;5137671;27;20057;-74
2023/12/27 07:22:16;;;;;;;16.42;7.00;;;;;;;;;;5156088;27;20046;-74
2023/12/27 07:24:42;;;;;;;17.35;6.82;;;;;;;;;;5156122;27;20039;-76
2023/12/27 07:27:09;;;;;;;15.55;5.75;;;;;;;;;;5156035;27;20050;-75
2023/12/27 07:29:37;;;;;;;23.80;5.85;;;;;;;;;;5137693;27;20047;-76
2023/12/27 07:32:06;;;;;;;22.67;6.93;;;;;;;;;;5138544;27;20057;-75
2023/12/27 07:34:33;;;;;;;16.98;6.47;;;;;;;;;;5138375;27;20045;-75
2023/12/27 07:36:59;;;;;;;16.75;6.43;;;;;;;;;;5155177;27;20047;-75
2023/12/27 07:39:25;;;;;;;19.35;7.03;;;;;;;;;;5120425;27;20047;-75
2023/12/27 07:41:52;;;;;;;22.15;6.85;;;;;;;;;;5137207;27;20466;-75
2023/12/27 07:44:18;;;;;;;24.90;7.75;;;;;;;;;;5137672;27;20462;-77
2023/12/27 07:46:44;;;;;;;23.60;7.05;;;;;;;;;;5155887;27;20402;-75
2023/12/27 07:49:11;;;;;;;22.73;7.25;;;;;;;;;;5137351;27;20054;-77
2023/12/27 07:51:37;;;;;;;;;;;;;;;;;;5137779;27;20046;-78
2023/12/27 07:54:07;;;;;;;18.90;7.38;;;;;;;;;;5156359;27;20278;-74
2023/12/27 07:56:34;;;;;;;20.23;6.70;;;;;;;;;;5136962;27;20050;-75
2023/12/27 07:59:00;;;;;;;21.30;7.38;;;;;;;;;;5155304;27;20162;-75
2023/12/27 08:01:31;;;;;;;18.85;7.30;;;;;;;;;;5155415;27;20043;-76
2023/12/27 08:03:58;;;;;;;23.17;8.38;;;;;;;;;;5120371;27;20150;-74
2023/12/27 08:06:24;;;;;;;;;;;;;;;;;;5137337;27;20543;-75
2023/12/27 08:08:50;;;;;;;17.97;6.70;;;;;;;;;;5155568;27;20023;-75
2023/12/27 08:11:16;;;;;;;20.73;7.28;;;;;;;;;;5120312;27;20400;-75
2023/12/27 08:13:43;;;;;;;17.58;7.63;;;;;;;;;;5136419;27;20042;-75
2023/12/27 08:16:09;;;;;;;24.55;7.40;;;;;;;;;;5137689;27;20051;-75
2023/12/27 08:18:35;;;;;;;16.80;7.70;;;;;;;;;;5136691;27;20043;-75
2023/12/27 08:21:01;;;;;;;21.87;7.87;;;;;;;;;;5137006;27;20085;-74
2023/12/27 08:23:27;;;;;;;23.60;7.10;;;;;;;;;;5136743;27;20050;-75
2023/12/27 08:25:53;;;;;;;21.45;7.45;;;;;;;;;;5119518;27;20049;-75
2023/12/27 08:28:19;;;;;;;18.55;6.80;;;;;;;;;;5136931;27;20082;-75
2023/12/27 08:30:46;;;;;;;24.38;7.75;;;;;;;;;;5154945;27;20042;-74
2023/12/27 08:33:12;;;;;;;21.10;6.97;;;;;;;;;;5119886;27;20117;-75
2023/12/27 08:35:38;;;;;;;21.40;6.95;;;;;;;;;;5119681;27;20039;-74
2023/12/27 08:38:05;;;;;;;18.73;7.47;;;;;;;;;;5155061;27;20119;-75
2023/12/27 08:40:31;;;;;;;25.05;7.47;;;;;;;;;;5154866;27;20050;-75
2023/12/27 08:43:00;;;;;;;20.00;7.50;;;;;;;;;;5136408;27;20505;-75
2023/12/27 08:45:26;;;;;;;24.60;7.95;;;;;;;;;;5119457;27;20470;-75
2023/12/27 08:47:52;;;;;;;24.65;8.32;;;;;;;;;;5154740;27;20046;-75
2023/12/27 08:50:18;;;;;;;19.42;8.40;;;;;;;;;;5141030;27;20047;-74
2023/12/27 08:52:44;;;;;;;22.55;8.65;;;;;;;;;;5123553;27;20482;-75
2023/12/27 08:55:10;;;;;;;19.63;8.23;;;;;;;;;;5140473;27;20078;-74
2023/12/27 08:57:40;;;;;;;21.25;8.05;;;;;;;;;;5140597;27;20138;-75
2023/12/27 09:00:13;;;;;;;23.23;8.50;;;;;;;;;;5123105;27;20045;-77
2023/12/27 09:02:39;;;;;;;20.85;8.15;;;;;;;;;;5140410;27;20121;-75
2023/12/27 09:05:06;;;;;;;20.33;8.23;;;;;;;;;;5140269;27;20086;-75
2023/12/27 09:07:32;;;;;;;23.55;9.43;;;;;;;;;;5123606;27;20046;-73
2023/12/27 09:09:58;;;;;;;26.60;9.15;;;;;;;;;;5140917;27;20035;-75
2023/12/27 09:12:25;;;;;;;21.48;8.15;;;;;;;;;;5140301;27;20049;-75
2023/12/27 09:14:52;;;;;;;18.27;6.55;;;;;;;;;;5158472;27;20047;-75
2023/12/27 09:17:18;;;;;;;20.53;7.80;;;;;;;;;;5159329;27;20438;-74
2023/12/27 09:19:44;;;;;;;23.85;8.20;;;;;;;;;;5140039;27;20312;-75
2023/12/27 09:22:10;;;;;;;23.17;7.78;;;;;;;;;;5158506;27;20050;-75
2023/12/27 09:24:36;;;;;;;21.23;8.25;;;;;;;;;;5122783;27;20049;-75
2023/12/27 09:27:03;;;;;;;18.67;7.90;;;;;;;;;;5123632;27;20050;-76
2023/12/27 09:29:30;;;;;;;21.70;7.63;;;;;;;;;;5140059;27;20071;-75
2023/12/27 09:31:56;;;;;;;;;;;;;;;;;;5123904;27;20081;-75
2023/12/27 09:34:22;;;;;;;20.08;8.40;;;;;;;;;;5139935;27;19919;-75
2023/12/27 09:36:49;;;;;;;16.98;5.72;;;;;;;;;;5158101;27;20050;-77
2023/12/27 09:39:15;;;;;;;13.35;5.22;;;;;;;;;;5158091;27;20046;-74
2023/12/27 09:41:41;;;;;;;18.75;6.63;;;;;;;;;;5139601;27;20034;-75
2023/12/27 09:44:07;;;;;;;18.30;7.90;;;;;;;;;;5140063;27;20049;-74
2023/12/27 09:46:34;;;;;;;19.67;8.20;;;;;;;;;;5140063;27;20058;-75
2023/12/27 09:49:00;;;;;;;17.58;7.35;;;;;;;;;;5158661;27;20089;-74
2023/12/27 09:51:27;;;;;;;22.42;8.50;;;;;;;;;;5139919;27;20369;-76
2023/12/27 09:53:53;;;;;;;20.20;8.07;;;;;;;;;;5139521;27;20121;-78
2023/12/27 09:56:19;;;;;;;13.98;5.57;;;;;;;;;;5158346;27;20074;-76
2023/12/27 09:58:49;;;;;;;20.50;9.23;;;;;;;;;;5139793;27;20050;-75
2023/12/27 10:01:15;;;;;;;18.27;7.47;;;;;;;;;;5156995;27;20121;-73
2023/12/27 10:03:42;;;;;;;21.25;7.82;;;;;;;;;;5136029;27;20126;-73
2023/12/27 10:06:15;;;;;;;24.90;7.93;;;;;;;;;;5137221;27;20051;-73
2023/12/27 10:08:41;;;;;;;21.85;7.55;;;;;;;;;;5136909;27;20043;-73
2023/12/27 10:11:09;;;;;;;23.55;7.25;;;;;;;;;;5136881;27;20080;-73
2023/12/27 10:13:39;;;;;;;18.17;6.78;;;;;;;;;;5137372;27;20054;-72
2023/12/27 10:16:05;;;;;;;23.75;7.85;;;;;;;;;;5118647;27;20047;-73
2023/12/27 10:18:31;;;;;;;22.63;7.73;;;;;;;;;;5135624;27;20057;-73
2023/12/27 10:20:58;;;;;;;21.63;8.13;;;;;;;;;;5136645;27;20297;-73
2023/12/27 10:23:24;;;;;;;25.80;8.25;;;;;;;;;;5135719;27;20139;-73
2023/12/27 10:25:52;;;;;;;20.27;7.97;;;;;;;;;;5137195;27;20043;-73
2023/12/27 10:28:18;;;;;;;;;;;;;;;;;;5118745;27;20047;-75
2023/12/27 10:30:47;;;;;;;25.73;7.57;;;;;;;;;;5135268;27;19919;-74
2023/12/27 10:33:13;;;;;;;24.85;7.00;;;;;;;;;;5136248;27;20043;-75
2023/12/27 10:35:39;;;;;;;12.07;5.45;;;;;;;;;;5135206;27;20348;-74
2023/12/27 10:38:06;;;;;;;18.92;8.05;;;;;;;;;;5135079;27;20427;-75
2023/12/27 10:40:33;;;;;;;17.60;7.20;;;;;;;;;;5136609;27;20103;-73
2023/12/27 10:42:59;;;;;;;18.20;7.55;;;;;;;;;;5135147;27;20075;-74
2023/12/27 10:45:25;;;;;;;17.17;6.65;;;;;;;;;;5136097;27;20057;-74
2023/12/27 10:48:02;;;;;;;18.17;6.35;;;;;;;;;;5135107;27;20093;-74
2023/12/27 10:50:30;;;;;;;15.13;6.32;;;;;;;;;;5135986;27;20049;-74
2023/12/27 10:53:05;;;;;;;18.40;7.32;;;;;;;;;;5136288;27;20047;-73
2023/12/27 10:55:32;;;;;;;17.95;5.90;;;;;;;;;;5135808;27;20126;-75
2023/12/27 10:57:59;;;;;;;16.75;7.20;;;;;;;;;;5134822;27;20043;-72
2023/12/27 11:00:25;;;;;;;21.70;7.13;;;;;;;;;;5135652;27;20050;-72
2023/12/27 11:02:52;;;;;;;20.17;7.50;;;;;;;;;;5146531;27;20073;-71
2023/12/27 11:05:19;;;;;;;19.80;6.87;;;;;;;;;;5156339;27;20050;-72
2023/12/27 11:07:45;;;;;;;;;;;;;;;;;;5157598;27;20042;-72
2023/12/27 11:10:13;;;;;;;19.50;6.53;;;;;;;;;;5156245;27;19918;-72
2023/12/27 11:12:39;;;;;;;21.27;6.18;;;;;;;;;;5156076;27;20045;-72
2023/12/27 11:15:06;;;;;;;19.67;7.83;;;;;;;;;;5156109;27;20043;-71
2023/12/27 11:17:32;;;;;;;15.38;6.10;;;;;;;;;;5120931;27;20046;-71
2023/12/27 11:19:58;;;;;;;18.63;8.10;;;;;;;;;;5155978;27;20050;-71
2023/12/27 11:22:24;;;;;;;19.88;7.35;;;;;;;;;;5156546;27;20051;-72
2023/12/27 11:24:50;;;;;;;15.25;6.47;;;;;;;;;;5137995;27;20047;-70
2023/12/27 11:27:18;;;;;;;17.20;7.78;;;;;;;;;;5156035;27;20379;-71
2023/12/27 11:29:45;;;;;;;18.58;8.23;;;;;;;;;;5156402;27;20052;-70
2023/12/27 11:32:11;;;;;;;14.75;6.95;;;;;;;;;;5155786;27;20049;-71
2023/12/27 11:34:37;;;;;;;15.25;6.50;;;;;;;;;;5155871;27;20050;-70
2023/12/27 11:37:04;;;;;;;20.52;7.50;;;;;;;;;;5155687;27;20046;-70
2023/12/27 11:39:30;;;;;;;20.30;7.10;;;;;;;;;;5155797;27;20042;-70
2023/12/27 11:41:58;;;;;;;16.70;7.97;;;;;;;;;;5137129;27;20684;-71
2023/12/27 11:44:24;;;;;;;18.70;6.88;;;;;;;;;;5155565;27;20057;-71
2023/12/27 11:46:50;;;;;;;16.35;7.40;;;;;;;;;;5155560;27;20047;-70
2023/12/27 11:49:20;;;;;;;16.23;7.10;;;;;;;;;;5155484;27;20054;-70
2023/12/27 11:51:46;;;;;;;16.15;7.07;;;;;;;;;;5136942;27;20126;-70
2023/12/27 11:54:23;;;;;;;12.90;5.75;;;;;;;;;;5156206;27;20061;-72
2023/12/27 11:56:49;;;;;;;20.77;8.15;;;;;;;;;;5137297;27;20054;-70
2023/12/27 11:59:15;;;;;;;17.13;8.07;;;;;;;;;;5155355;27;20042;-70
2023/12/27 12:01:41;;;;;;;12.82;6.32;;;;;;;;;;5136678;27;20043;-70
2023/12/27 12:04:10;;;;;;;15.10;7.95;;;;;;;;;;5155952;27;20050;-70
2023/12/27 12:06:37;;;;;;;17.83;8.07;;;;;;;;;;5137858;27;20431;-70
2023/12/27 12:09:03;;;;;;;15.13;7.35;;;;;;;;;;5137049;27;20394;-70
2023/12/27 12:11:29;;;;;;;15.33;7.77;;;;;;;;;;5155197;27;20076;-71
2023/12/27 12:13:55;;;;;;;18.05;7.50;;;;;;;;;;5136760;27;20724;-70
2023/12/27 12:16:22;;;;;;;17.83;8.40;;;;;;;;;;5155216;27;20094;-70
2023/12/27 12:18:48;;;;;;;15.57;7.77;;;;;;;;;;5155202;27;20043;-69
2023/12/27 12:21:14;;;;;;;17.60;7.80;;;;;;;;;;5155231;27;20049;-70
2023/12/27 12:23:40;;;;;;;17.20;7.68;;;;;;;;;;5136189;27;20043;-70
2023/12/27 12:26:06;;;;;;;17.02;8.13;;;;;;;;;;5136744;27;20043;-69
2023/12/27 12:28:32;;;;;;;15.93;7.45;;;;;;;;;;5136652;27;20478;-70
2023/12/27 12:30:59;;;;;;;17.20;8.00;;;;;;;;;;5155045;27;20078;-70
2023/12/27 12:33:25;;;;;;;21.05;8.75;;;;;;;;;;5154937;27;20058;-69
2023/12/27 12:35:53;;;;;;;17.73;8.25;;;;;;;;;;5155482;27;20473;-70
2023/12/27 12:38:20;;;;;;;23.13;9.15;;;;;;;;;;5154792;27;20042;-71
2023/12/27 12:40:47;;;;;;;19.40;8.38;;;;;;;;;;5136699;27;20435;-69
2023/12/27 12:43:15;;;;;;;16.25;8.27;;;;;;;;;;5136553;27;20042;-70
2023/12/27 12:45:41;;;;;;;;;;;;;;;;;;5120113;27;20043;-70
2023/12/27 12:48:07;;;;;;;17.65;8.75;;;;;;;;;;5155600;27;20017;-70
2023/12/27 12:50:33;;;;;;;20.45;9.27;;;;;;;;;;5154668;27;20129;-69
2023/12/27 12:53:15;;;;;;;17.67;8.45;;;;;;;;;;5154743;27;20051;-70
2023/12/27 12:55:43;;;;;;;15.88;9.23;;;;;;;;;;5136872;27;20038;-70
2023/12/27 12:58:09;;;;;;;18.73;9.02;;;;;;;;;;5154993;27;20047;-70
2023/12/27 13:00:36;;;;;;;22.50;10.27;;;;;;;;;;5119941;27;20094;-70
2023/12/27 13:03:03;;;;;;;23.07;10.07;;;;;;;;;;5154865;27;20050;-71
2023/12/27 13:05:30;;;;;;;24.02;10.60;;;;;;;;;;5136125;27;20114;-69
2023/12/27 13:07:56;;;;;;;24.70;10.47;;;;;;;;;;5154726;27;20065;-70
2023/12/27 13:10:22;;;;;;;19.65;9.57;;;;;;;;;;5155138;27;20049;-71
2023/12/27 13:12:48;;;;;;;21.50;9.60;;;;;;;;;;5154627;27;20046;-71
2023/12/27 13:15:19;;;;;;;21.10;9.55;;;;;;;;;;5119921;27;20046;-71
2023/12/27 13:17:45;;;;;;;17.88;8.73;;;;;;;;;;5155265;27;20035;-70
2023/12/27 13:20:12;;;;;;;22.20;9.25;;;;;;;;;;5154468;27;20083;-69
2023/12/27 13:22:38;;;;;;;20.52;10.65;;;;;;;;;;5154896;27;20053;-70
2023/12/27 13:25:04;;;;;;;19.60;9.90;;;;;;;;;;5136212;27;20092;-70
2023/12/27 13:27:30;;;;;;;21.08;9.90;;;;;;;;;;5136092;27;20093;-70
2023/12/27 13:29:57;;;;;;;18.10;9.48;;;;;;;;;;5136121;27;20042;-70
2023/12/27 13:32:23;;;;;;;20.98;9.48;;;;;;;;;;5154674;27;20389;-70
2023/12/27 13:34:49;;;;;;;20.38;9.77;;;;;;;;;;5155094;27;20228;-69
2023/12/27 13:37:18;;;;;;;20.88;8.20;;;;;;;;;;5157386;27;20046;-70
2023/12/27 13:39:45;;;;;;;17.85;7.22;;;;;;;;;;5140477;27;20046;-72
2023/12/27 13:42:11;;;;;;;16.83;8.75;;;;;;;;;;5139435;27;20397;-71
2023/12/27 13:44:38;;;;;;;16.33;8.32;;;;;;;;;;5157791;27;20050;-70
2023/12/27 13:47:04;;;;;;;16.23;8.18;;;;;;;;;;5157910;27;20175;-71
2023/12/27 13:49:30;;;;;;;16.80;8.35;;;;;;;;;;5140334;27;20485;-70
2023/12/27 13:51:56;;;;;;;18.58;8.18;;;;;;;;;;5157871;27;20048;-70
2023/12/27 13:54:22;;;;;;;18.63;7.68;;;;;;;;;;5139162;27;20082;-71
2023/12/27 13:56:48;;;;;;;15.50;8.00;;;;;;;;;;5139318;27;20393;-71
2023/12/27 13:59:14;;;;;;;16.70;7.88;;;;;;;;;;5122263;27;20050;-69
2023/12/27 14:01:41;;;;;;;19.17;7.30;;;;;;;;;;5138773;27;20098;-70
2023/12/27 14:04:08;;;;;;;15.15;7.10;;;;;;;;;;5157662;27;20047;-71
2023/12/27 14:06:36;;;;;;;12.70;6.43;;;;;;;;;;5157386;27;20081;-70
2023/12/27 14:09:03;;;;;;;17.60;6.95;;;;;;;;;;5157502;27;20054;-72
2023/12/27 14:11:29;;;;;;;12.35;6.45;;;;;;;;;;5157409;27;20073;-70
2023/12/27 14:13:57;;;;;;;14.13;4.53;;;;;;;;;;5138910;27;20121;-71
2023/12/27 14:16:23;;;;;;;15.38;5.25;;;;;;;;;;5157235;27;20046;-69
2023/12/27 14:18:49;;;;;;;14.48;5.63;;;;;;;;;;5139354;27;20060;-71
2023/12/27 14:21:15;;;;;;;13.73;5.30;;;;;;;;;;5139579;27;20043;-71
2023/12/27 14:23:41;;;;;;;9.95;4.30;;;;;;;;;;5139669;27;20090;-70
2023/12/27 14:26:07;;;;;;;12.10;5.20;;;;;;;;;;5121547;27;20054;-69